createdAt,value
2023-08-31T00:01:36.083Z,99361.88
2023-08-31T00:04:05.541Z,99361.09
2023-08-31T00:06:34.057Z,99359.41
2023-08-31T00:09:03.167Z,99362.97
2023-08-31T00:11:32.733Z,99359.50
2023-08-31T00:14:01.189Z,99358.47
2023-08-31T00:16:30.972Z,99364.50
2023-08-31T00:19:00.159Z,99361.88
2023-08-31T00:21:28.659Z,99351.53
2023-08-31T00:23:56.999Z,99344.06
2023-08-31T00:26:25.848Z,99347.88
2023-08-31T00:28:55.103Z,99339.50
2023-08-31T00:31:24.533Z,99342.44
2023-08-31T00:33:54.315Z,99339.97
2023-08-31T00:36:22.706Z,99340.88
2023-08-31T00:38:51.173Z,99333.78
2023-08-31T00:41:19.627Z,99339.78
2023-08-31T00:43:48.077Z,99330.00
2023-08-31T00:46:17.616Z,99333.31
2023-08-31T00:48:48.193Z,99334.91
2023-08-31T00:51:19.833Z,99324.19
2023-08-31T00:53:49.580Z,99317.34
2023-08-31T00:56:19.834Z,99310.84
2023-08-31T00:58:49.618Z,99320.78
2023-08-31T01:01:27.829Z,99318.94
2023-08-31T01:04:05.453Z,99314.81
2023-08-31T01:06:44.206Z,99321.19
2023-08-31T01:09:20.689Z,99316.78
2023-08-31T01:12:00.245Z,99328.72
2023-08-31T01:14:40.667Z,99331.06
2023-08-31T01:17:11.124Z,99324.94
2023-08-31T01:19:50.437Z,99328.16
2023-08-31T01:22:30.056Z,99323.31
2023-08-31T01:25:02.584Z,99329.78
2023-08-31T01:27:31.923Z,99332.53
2023-08-31T01:30:00.331Z,99330.56
2023-08-31T01:32:30.005Z,99332.22
2023-08-31T01:34:59.820Z,99337.38
2023-08-31T01:37:35.774Z,99337.38
2023-08-31T01:40:16.084Z,99335.69
2023-08-31T01:42:45.637Z,99333.06
2023-08-31T01:45:21.747Z,99332.06
2023-08-31T01:47:51.466Z,99330.28
2023-08-31T01:50:21.057Z,99321.47
2023-08-31T01:52:49.481Z,99319.66
2023-08-31T01:55:19.805Z,99318.06
2023-08-31T01:57:48.275Z,99314.38
2023-08-31T02:00:22.870Z,99313.22
2023-08-31T02:02:51.613Z,99308.81
2023-08-31T02:05:20.112Z,99305.28
2023-08-31T02:07:48.568Z,99311.59
2023-08-31T02:10:18.593Z,99309.91
2023-08-31T02:12:47.006Z,99302.22
2023-08-31T02:15:15.460Z,99292.63
2023-08-31T02:17:44.636Z,99294.13
2023-08-31T02:20:15.304Z,99293.00
2023-08-31T02:22:44.055Z,99294.78
2023-08-31T02:25:13.754Z,99294.91
2023-08-31T02:27:43.664Z,99293.28
2023-08-31T02:30:12.426Z,99289.81
2023-08-31T02:32:40.910Z,99290.50
2023-08-31T02:35:09.756Z,99293.94
2023-08-31T02:37:38.083Z,99281.69
2023-08-31T02:40:07.673Z,99295.69
2023-08-31T02:42:37.799Z,99292.91
2023-08-31T02:45:08.871Z,99291.06
2023-08-31T02:47:37.408Z,99292.91
2023-08-31T02:50:06.821Z,99291.06
2023-08-31T02:52:35.381Z,99294.50
2023-08-31T02:55:03.990Z,99286.38
2023-08-31T02:57:32.485Z,99291.34
2023-08-31T03:00:01.227Z,99295.53
2023-08-31T03:02:31.388Z,99290.03
2023-08-31T03:04:59.836Z,99291.78
2023-08-31T03:07:28.304Z,99278.47
2023-08-31T03:09:56.754Z,99279.22
2023-08-31T03:12:25.085Z,99276.91
2023-08-31T03:14:53.517Z,99279.41
2023-08-31T03:17:21.855Z,99276.56
2023-08-31T03:19:51.735Z,99287.75
2023-08-31T03:22:20.437Z,99282.66
2023-08-31T03:24:48.766Z,99273.06
2023-08-31T03:27:18.118Z,99272.13
2023-08-31T03:29:46.597Z,99276.31
2023-08-31T03:32:15.041Z,99270.91
2023-08-31T03:34:44.287Z,99269.25
2023-08-31T03:37:15.356Z,99259.75
2023-08-31T03:39:44.133Z,99266.81
2023-08-31T03:42:12.518Z,99266.81
2023-08-31T03:44:40.986Z,99264.84
2023-08-31T03:47:09.386Z,99276.19
2023-08-31T03:49:37.788Z,99269.97
2023-08-31T03:52:06.775Z,99264.72
2023-08-31T03:54:36.592Z,99271.69
2023-08-31T03:57:05.346Z,99273.28
2023-08-31T03:59:33.724Z,99278.53
2023-08-31T04:02:02.191Z,99271.56
2023-08-31T04:04:32.598Z,99270.69
2023-08-31T04:07:01.156Z,99272.44
2023-08-31T04:09:29.580Z,99273.28
2023-08-31T04:11:59.643Z,99277.69
2023-08-31T04:14:28.723Z,99279.44
2023-08-31T04:16:57.134Z,99278.53
2023-08-31T04:19:25.706Z,99264.72
2023-08-31T04:21:54.035Z,99267.47
2023-08-31T04:24:22.528Z,99266.59
2023-08-31T04:26:52.446Z,99276.31
2023-08-31T04:29:22.343Z,99275.53
2023-08-31T04:31:50.812Z,99281.72
2023-08-31T04:34:19.124Z,99287.75
2023-08-31T04:36:47.846Z,99288.53
2023-08-31T04:39:16.115Z,99283.44
2023-08-31T04:41:44.566Z,99285.13
2023-08-31T04:44:13.130Z,99287.63
2023-08-31T04:46:42.946Z,99285.69
2023-08-31T04:49:11.337Z,99285.69
2023-08-31T04:51:40.659Z,99285.75
2023-08-31T04:54:10.118Z,99283.06
2023-08-31T04:56:38.866Z,99288.22
2023-08-31T04:59:07.271Z,99285.75
2023-08-31T05:01:35.721Z,99278.81
2023-08-31T05:04:05.984Z,99284.06
2023-08-31T05:06:34.598Z,99284.16
2023-08-31T05:09:03.946Z,99282.50
2023-08-31T05:11:32.429Z,99285.13
2023-08-31T05:14:00.863Z,99285.75
2023-08-31T05:16:29.303Z,99284.75
2023-08-31T05:18:57.723Z,99285.75
2023-08-31T05:21:27.626Z,99275.25
2023-08-31T05:23:56.097Z,99276.94
2023-08-31T05:26:25.028Z,99278.59
2023-08-31T05:28:53.479Z,99271.56
2023-08-31T05:31:21.851Z,99279.38
2023-08-31T05:33:50.266Z,99279.38
2023-08-31T05:36:18.663Z,99276.81
2023-08-31T05:38:48.367Z,99281.22
2023-08-31T05:41:17.713Z,99265.44
2023-08-31T05:43:46.842Z,99260.13
2023-08-31T05:46:15.416Z,99266.16
2023-08-31T05:48:44.098Z,99269.41
2023-08-31T05:51:12.777Z,99278.94
2023-08-31T05:53:41.088Z,99276.22
2023-08-31T05:56:10.977Z,99282.31
2023-08-31T05:58:39.725Z,99289.22
2023-08-31T06:01:08.359Z,99279.66
2023-08-31T06:03:37.657Z,99280.50
2023-08-31T06:06:06.057Z,99290.75
2023-08-31T06:08:34.500Z,99294.19
2023-08-31T06:11:02.858Z,99289.78
2023-08-31T06:13:32.749Z,99291.56
2023-08-31T06:16:01.169Z,99291.69
2023-08-31T06:18:29.617Z,99288.31
2023-08-31T06:20:58.358Z,99280.41
2023-08-31T06:23:26.766Z,99277.63
2023-08-31T06:25:55.164Z,99281.81
2023-08-31T06:28:23.486Z,99283.38
2023-08-31T06:30:53.272Z,99280.56
2023-08-31T06:33:21.679Z,99269.91
2023-08-31T06:35:53.305Z,99276.69
2023-08-31T06:38:22.667Z,99281.81
2023-08-31T06:40:51.155Z,99277.16
2023-08-31T06:43:19.586Z,99283.97
2023-08-31T06:45:49.052Z,99281.03
2023-08-31T06:48:18.900Z,99272.91
2023-08-31T06:50:47.945Z,99277.91
2023-08-31T06:53:16.281Z,99275.91
2023-08-31T06:55:45.282Z,99281.78
2023-08-31T06:58:13.626Z,99279.59
2023-08-31T07:00:42.060Z,99271.22
2023-08-31T07:03:10.659Z,99281.38
2023-08-31T07:05:44.871Z,99280.16
2023-08-31T07:08:13.416Z,99276.28
2023-08-31T07:10:41.858Z,99281.22
2023-08-31T07:13:10.606Z,99275.63
2023-08-31T07:15:39.130Z,99279.03
2023-08-31T07:18:07.657Z,99273.41
2023-08-31T07:20:36.091Z,99272.31
2023-08-31T07:23:06.337Z,99269.59
2023-08-31T07:25:34.818Z,99274.97
2023-08-31T07:28:04.246Z,99271.56
2023-08-31T07:30:34.455Z,99270.72
2023-08-31T07:33:13.854Z,99273.25
2023-08-31T07:35:45.742Z,99281.94
2023-08-31T07:38:15.517Z,99277.59
2023-08-31T07:40:47.194Z,99287.38
2023-08-31T07:43:16.115Z,99278.69
2023-08-31T07:45:44.698Z,99270.88
2023-08-31T07:48:13.196Z,99274.53
2023-08-31T07:50:42.966Z,99268.31
2023-08-31T07:53:11.679Z,99274.19
2023-08-31T07:55:41.832Z,99275.13
2023-08-31T07:58:10.221Z,99276.84
2023-08-31T08:00:38.682Z,99263.56
2023-08-31T08:03:07.482Z,99271.22
2023-08-31T08:05:35.905Z,99279.72
2023-08-31T08:08:04.672Z,99261.09
2023-08-31T08:10:32.997Z,99265.09
2023-08-31T08:13:03.126Z,99257.78
2023-08-31T08:15:34.988Z,99268.25
2023-08-31T08:18:04.507Z,99267.31
2023-08-31T08:20:34.013Z,99271.56
2023-08-31T08:23:05.600Z,99265.53
2023-08-31T08:25:35.343Z,99278.56
2023-08-31T08:28:05.521Z,99277.34
2023-08-31T08:30:33.954Z,99273.69
2023-08-31T08:33:02.379Z,99282.13
2023-08-31T08:35:30.866Z,99279.25
2023-08-31T08:37:59.145Z,99284.53
2023-08-31T08:40:27.803Z,99293.22
2023-08-31T08:42:57.426Z,99298.47
2023-08-31T08:45:28.845Z,99286.88
2023-08-31T08:47:59.979Z,99293.00
2023-08-31T08:50:30.293Z,99295.66
2023-08-31T08:52:58.708Z,99293.81
2023-08-31T08:55:27.129Z,99295.50
2023-08-31T08:57:55.607Z,99295.66
2023-08-31T09:00:24.000Z,99303.75
2023-08-31T09:02:53.922Z,99295.97
2023-08-31T09:05:22.592Z,99290.69
2023-08-31T09:08:03.448Z,99291.63
2023-08-31T09:10:39.752Z,99296.06
2023-08-31T09:13:10.275Z,99294.38
2023-08-31T09:15:43.286Z,99296.25
2023-08-31T09:18:17.298Z,99293.41
2023-08-31T09:20:47.238Z,99288.69
2023-08-31T09:23:16.076Z,99290.03
2023-08-31T09:25:46.014Z,99285.34
2023-08-31T09:28:15.352Z,99289.94
2023-08-31T09:30:45.636Z,99283.25
2023-08-31T09:33:18.839Z,99284.50
2023-08-31T09:35:53.080Z,99286.50
2023-08-31T09:38:22.206Z,99276.19
2023-08-31T09:40:50.685Z,99277.53
2023-08-31T09:43:23.390Z,99275.38
2023-08-31T09:45:53.036Z,99274.19
2023-08-31T09:48:24.510Z,99281.00
2023-08-31T09:50:54.214Z,99282.78
2023-08-31T09:53:23.456Z,99281.00
2023-08-31T09:55:55.316Z,99284.28
2023-08-31T09:58:24.304Z,99288.25
2023-08-31T10:00:54.099Z,99284.41
2023-08-31T10:03:24.209Z,99283.47
2023-08-31T10:05:52.947Z,99276.38
2023-08-31T10:08:21.455Z,99276.13
2023-08-31T10:10:49.939Z,99269.44
2023-08-31T10:13:19.184Z,99262.94
2023-08-31T10:15:51.220Z,99269.25
2023-08-31T10:18:20.414Z,99273.69
2023-08-31T10:20:50.693Z,99272.00
2023-08-31T10:23:19.186Z,99274.34
2023-08-31T10:26:04.881Z,99275.59
2023-08-31T10:28:42.893Z,99270.84
2023-08-31T10:31:17.689Z,99274.81
2023-08-31T10:33:47.041Z,99279.34
2023-08-31T10:36:18.638Z,99270.28
2023-08-31T10:38:50.043Z,99278.97
2023-08-31T10:41:23.043Z,99274.44
2023-08-31T10:43:53.736Z,99275.97
2023-08-31T10:46:30.463Z,99269.44
2023-08-31T10:49:00.045Z,99261.44
2023-08-31T10:51:31.818Z,99265.03
2023-08-31T10:54:12.076Z,99265.41
2023-08-31T10:57:06.584Z,99268.22
2023-08-31T10:59:46.248Z,99263.97
2023-08-31T11:02:30.651Z,99259.53
2023-08-31T11:05:05.275Z,99253.88
2023-08-31T11:07:37.808Z,99252.34
2023-08-31T11:10:12.444Z,99254.63
2023-08-31T11:12:41.064Z,99251.31
2023-08-31T11:15:10.334Z,99249.16
2023-08-31T11:17:41.506Z,99252.25
2023-08-31T11:20:11.174Z,99252.34
2023-08-31T11:22:46.179Z,99246.38
2023-08-31T11:25:17.862Z,99245.91
2023-08-31T11:27:58.548Z,99247.16
2023-08-31T11:30:28.062Z,99248.19
2023-08-31T11:32:57.081Z,99241.69
2023-08-31T11:35:26.118Z,99237.59
2023-08-31T11:37:58.311Z,99231.00
2023-08-31T11:40:28.758Z,99228.06
2023-08-31T11:42:57.677Z,99224.94
2023-08-31T11:45:26.734Z,99218.44
2023-08-31T11:47:56.696Z,99215.69
2023-08-31T11:50:26.598Z,99214.19
2023-08-31T11:52:57.016Z,99211.72
2023-08-31T11:55:25.411Z,99212.38
2023-08-31T11:57:55.900Z,99205.97
2023-08-31T12:00:25.691Z,99209.88
2023-08-31T12:02:59.684Z,99210.34
2023-08-31T12:05:28.669Z,99220.63
2023-08-31T12:07:59.206Z,99216.00
2023-08-31T12:10:28.577Z,99217.06
2023-08-31T12:13:09.972Z,99220.56
2023-08-31T12:15:38.821Z,99220.25
2023-08-31T12:18:11.231Z,99221.94
2023-08-31T12:20:46.113Z,99210.13
2023-08-31T12:23:17.336Z,99210.59
2023-08-31T12:25:50.534Z,99209.06
2023-08-31T12:28:19.386Z,99204.16
2023-08-31T12:30:51.147Z,99197.63
2023-08-31T12:33:20.647Z,99191.09
2023-08-31T12:35:49.548Z,99190.88
2023-08-31T12:38:20.303Z,99183.50
2023-08-31T12:40:48.856Z,99191.22
2023-08-31T12:43:18.248Z,99188.94
2023-08-31T12:45:46.977Z,99180.59
2023-08-31T12:48:15.578Z,99193.97
2023-08-31T12:50:44.023Z,99197.03
2023-08-31T12:53:12.645Z,99197.16
2023-08-31T12:55:42.909Z,99196.75
2023-08-31T12:58:11.284Z,99207.78
2023-08-31T13:00:40.367Z,99193.16
2023-08-31T13:03:09.167Z,99187.16
2023-08-31T13:05:40.983Z,99185.97
2023-08-31T13:08:10.244Z,99181.75
2023-08-31T13:10:38.816Z,99185.44
2023-08-31T13:13:08.690Z,99180.06
2023-08-31T13:15:37.352Z,99179.53
2023-08-31T13:18:06.672Z,99173.03
2023-08-31T13:20:35.428Z,99175.91
2023-08-31T13:23:04.293Z,99166.50
2023-08-31T13:25:33.639Z,99173.28
2023-08-31T13:28:02.146Z,99170.94
2023-08-31T13:30:33.429Z,99177.41
2023-08-31T13:33:02.119Z,99188.22
2023-08-31T13:35:30.528Z,99185.56
2023-08-31T13:37:58.987Z,99193.72
2023-08-31T13:40:27.506Z,99184.31
2023-08-31T13:42:58.233Z,99184.09
2023-08-31T13:45:26.683Z,99176.88
2023-08-31T13:47:56.756Z,99176.56
2023-08-31T13:50:27.808Z,99169.00
2023-08-31T13:52:57.444Z,99175.16
2023-08-31T13:55:25.874Z,99169.44
2023-08-31T13:57:54.279Z,99177.09
2023-08-31T14:00:22.873Z,99194.25
2023-08-31T14:02:51.632Z,99181.31
2023-08-31T14:05:21.885Z,99179.28
2023-08-31T14:07:50.255Z,99190.81
2023-08-31T14:10:18.634Z,99182.69
2023-08-31T14:12:49.485Z,99186.81
2023-08-31T14:15:18.246Z,99198.16
2023-08-31T14:17:46.683Z,99193.50
2023-08-31T14:20:15.231Z,99197.94
2023-08-31T14:22:46.609Z,99194.66
2023-08-31T14:25:15.376Z,99195.28
2023-08-31T14:27:43.997Z,99189.34
2023-08-31T14:30:12.985Z,99193.31
2023-08-31T14:32:41.462Z,99190.63
2023-08-31T14:35:09.952Z,99194.91
2023-08-31T14:37:38.354Z,99184.19
2023-08-31T14:40:09.704Z,99186.63
2023-08-31T14:42:38.766Z,99184.72
2023-08-31T14:45:08.257Z,99176.03
2023-08-31T14:47:36.781Z,99187.66
2023-08-31T14:50:06.555Z,99186.28
2023-08-31T14:52:35.010Z,99171.69
2023-08-31T14:55:05.147Z,99169.22
2023-08-31T14:57:34.954Z,99161.81
2023-08-31T15:00:07.307Z,99156.22
2023-08-31T15:02:35.815Z,99155.69
2023-08-31T15:05:06.191Z,99154.00
2023-08-31T15:07:34.645Z,99145.19
2023-08-31T15:10:04.566Z,99149.84
2023-08-31T15:12:34.904Z,99151.75
2023-08-31T15:15:04.904Z,99151.34
2023-08-31T15:17:33.384Z,99160.44
2023-08-31T15:20:01.898Z,99157.34
2023-08-31T15:22:30.319Z,99166.47
2023-08-31T15:24:58.937Z,99170.16
2023-08-31T15:27:27.346Z,99164.03
2023-08-31T15:29:57.151Z,99168.75
2023-08-31T15:32:25.627Z,99169.84
2023-08-31T15:34:55.304Z,99169.94
2023-08-31T15:37:23.721Z,99168.03
2023-08-31T15:39:53.995Z,99162.41
2023-08-31T15:42:25.849Z,99167.88
2023-08-31T15:44:56.760Z,99167.25
2023-08-31T15:47:26.710Z,99164.72
2023-08-31T15:49:57.026Z,99164.50
2023-08-31T15:52:25.419Z,99169.81
2023-08-31T15:54:54.418Z,99167.88
2023-08-31T15:57:22.883Z,99165.34
2023-08-31T15:59:51.336Z,99165.34
2023-08-31T16:02:19.819Z,99171.50
2023-08-31T16:04:49.723Z,99170.75
2023-08-31T16:07:18.207Z,99169.06
2023-08-31T16:09:48.282Z,99180.59
2023-08-31T16:12:16.655Z,99173.59
2023-08-31T16:14:48.988Z,99173.81
2023-08-31T16:17:17.548Z,99175.78
2023-08-31T16:19:45.951Z,99172.31
2023-08-31T16:22:15.765Z,99176.84
2023-08-31T16:24:44.166Z,99175.34
2023-08-31T16:27:12.638Z,99164.03
2023-08-31T16:29:41.039Z,99160.66
2023-08-31T16:32:09.726Z,99165.09
2023-08-31T16:34:38.154Z,99158.94
2023-08-31T16:37:07.071Z,99145.81
2023-08-31T16:39:36.858Z,99149.41
2023-08-31T16:42:05.805Z,99145.19
2023-08-31T16:44:34.298Z,99143.47
2023-08-31T16:47:02.683Z,99140.94
2023-08-31T16:49:31.167Z,99143.66
2023-08-31T16:51:59.637Z,99141.97
2023-08-31T16:54:28.100Z,99136.69
2023-08-31T16:56:58.367Z,99132.06
2023-08-31T16:59:26.729Z,99138.19
2023-08-31T17:01:55.211Z,99140.72
2023-08-31T17:04:25.607Z,99147.72
2023-08-31T17:06:54.352Z,99141.56
2023-08-31T17:09:22.688Z,99149.63
2023-08-31T17:11:51.165Z,99147.81
2023-08-31T17:14:21.136Z,99141.69
2023-08-31T17:16:49.472Z,99155.75
2023-08-31T17:19:17.922Z,99155.75
2023-08-31T17:21:46.507Z,99160.09
2023-08-31T17:24:14.846Z,99163.69
2023-08-31T17:26:43.499Z,99162.75
2023-08-31T17:29:12.167Z,99159.13
2023-08-31T17:31:43.197Z,99160.81
2023-08-31T17:34:17.545Z,99153.00
2023-08-31T17:36:46.498Z,99162.53
2023-08-31T17:39:15.235Z,99151.00
2023-08-31T17:41:43.719Z,99145.50
2023-08-31T17:44:12.087Z,99146.25
2023-08-31T17:46:41.962Z,99143.53
2023-08-31T17:49:10.574Z,99151.34
2023-08-31T17:51:38.959Z,99139.91
2023-08-31T17:54:07.965Z,99139.69
2023-08-31T17:56:36.405Z,99129.88
2023-08-31T17:59:06.419Z,99134.97
2023-08-31T18:01:35.336Z,99131.34
2023-08-31T18:04:05.666Z,99143.75
2023-08-31T18:06:34.525Z,99149.16
2023-08-31T18:09:05.874Z,99145.66
2023-08-31T18:11:34.368Z,99150.00
2023-08-31T18:14:04.279Z,99163.41
2023-08-31T18:16:32.757Z,99143.31
2023-08-31T18:19:01.135Z,99152.19
2023-08-31T18:21:31.096Z,99147.97
2023-08-31T18:23:59.555Z,99158.44
2023-08-31T18:26:27.976Z,99153.25
2023-08-31T18:28:56.502Z,99152.31
2023-08-31T18:31:26.285Z,99139.06
2023-08-31T18:33:54.860Z,99142.69
2023-08-31T18:36:23.304Z,99145.41
2023-08-31T18:38:53.107Z,99149.84
2023-08-31T18:41:21.650Z,99148.88
2023-08-31T18:43:50.176Z,99149.75
2023-08-31T18:46:19.441Z,99156.81
2023-08-31T18:48:47.897Z,99154.19
2023-08-31T18:51:16.246Z,99158.56
2023-08-31T18:53:44.546Z,99162.13
2023-08-31T18:56:14.340Z,99159.69
2023-08-31T18:58:44.857Z,99156.19
2023-08-31T19:01:13.461Z,99152.72
2023-08-31T19:03:41.866Z,99153.66
2023-08-31T19:06:10.476Z,99156.31
2023-08-31T19:08:38.845Z,99163.41
2023-08-31T19:11:10.676Z,99158.94
2023-08-31T19:13:40.545Z,99155.47
2023-08-31T19:16:09.062Z,99156.31
2023-08-31T19:18:41.592Z,99165.94
2023-08-31T19:21:19.817Z,99174.06
2023-08-31T19:23:49.644Z,99171.41
2023-08-31T19:26:18.183Z,99175.84
2023-08-31T19:28:47.997Z,99174.06
2023-08-31T19:31:16.414Z,99173.09
2023-08-31T19:33:44.961Z,99169.53
2023-08-31T19:36:13.998Z,99180.19
2023-08-31T19:38:42.615Z,99175.00
2023-08-31T19:41:11.096Z,99175.97
2023-08-31T19:43:39.386Z,99180.31
2023-08-31T19:46:13.045Z,99175.00
2023-08-31T19:48:41.717Z,99169.72
2023-08-31T19:51:10.876Z,99171.41
2023-08-31T19:53:39.313Z,99173.31
2023-08-31T19:56:08.481Z,99183.78
2023-08-31T19:58:36.950Z,99181.16
2023-08-31T20:01:05.353Z,99177.56
2023-08-31T20:03:39.628Z,99186.34
2023-08-31T20:06:08.348Z,99188.97
2023-08-31T20:08:38.379Z,99178.41
2023-08-31T20:11:06.927Z,99178.50
2023-08-31T20:13:35.345Z,99178.50
2023-08-31T20:16:04.838Z,99178.63
2023-08-31T20:18:33.240Z,99183.91
2023-08-31T20:21:03.064Z,99183.91
2023-08-31T20:23:31.426Z,99175.00
2023-08-31T20:25:59.888Z,99178.63
2023-08-31T20:28:28.333Z,99180.31
2023-08-31T20:30:58.900Z,99181.16
2023-08-31T20:33:27.474Z,99175.00
2023-08-31T20:36:06.946Z,99171.41
2023-08-31T20:38:36.484Z,99179.47
2023-08-31T20:41:05.624Z,99170.56
2023-08-31T20:43:35.189Z,99169.72
2023-08-31T20:46:08.981Z,99180.41
2023-08-31T20:48:37.549Z,99168.03
2023-08-31T20:51:08.629Z,99163.69
2023-08-31T20:53:37.352Z,99171.63
2023-08-31T20:56:09.664Z,99171.63
2023-08-31T20:58:39.135Z,99167.19
2023-08-31T21:01:08.122Z,99180.31
2023-08-31T21:03:40.115Z,99175.84
2023-08-31T21:06:10.640Z,99173.31
2023-08-31T21:08:39.467Z,99179.47
2023-08-31T21:11:07.962Z,99177.66
2023-08-31T21:13:38.486Z,99181.16
2023-08-31T21:16:07.371Z,99172.25
2023-08-31T21:18:37.411Z,99174.84
2023-08-31T21:21:06.650Z,99169.53
2023-08-31T21:23:36.946Z,99180.97
2023-08-31T21:26:07.786Z,99174.84
2023-08-31T21:28:36.839Z,99172.25
2023-08-31T21:31:05.503Z,99175.00
2023-08-31T21:33:34.161Z,99178.41
2023-08-31T21:36:04.504Z,99182.00
2023-08-31T21:38:33.380Z,99178.50
2023-08-31T21:41:06.789Z,99186.56
2023-08-31T21:43:36.054Z,99190.03
2023-08-31T21:46:05.082Z,99179.47
2023-08-31T21:48:34.004Z,99190.16
2023-08-31T21:51:02.423Z,99191.84
2023-08-31T21:53:31.123Z,99193.53
2023-08-31T21:56:05.529Z,99182.22
2023-08-31T21:58:34.236Z,99178.63
2023-08-31T22:01:04.278Z,99178.63
2023-08-31T22:03:33.400Z,99175.75
2023-08-31T22:06:08.353Z,99177.56
2023-08-31T22:08:37.563Z,99178.41
2023-08-31T22:11:08.155Z,99178.50
2023-08-31T22:13:36.903Z,99176.72
2023-08-31T22:16:15.636Z,99175.00
2023-08-31T22:18:50.505Z,99169.72
2023-08-31T22:21:19.372Z,99172.38
2023-08-31T22:23:47.817Z,99168.75
2023-08-31T22:26:17.790Z,99171.41
2023-08-31T22:28:46.289Z,99183.69
2023-08-31T22:31:14.797Z,99173.97
2023-08-31T22:33:43.316Z,99180.97
2023-08-31T22:36:11.717Z,99180.13
2023-08-31T22:38:40.176Z,99179.06
2023-08-31T22:41:08.774Z,99179.16
2023-08-31T22:43:42.448Z,99176.53
2023-08-31T22:46:11.285Z,99185.31
2023-08-31T22:48:39.844Z,99180.97
2023-08-31T22:51:08.336Z,99179.28
2023-08-31T22:53:36.775Z,99185.41
2023-08-31T22:56:07.603Z,99182.78
2023-08-31T22:58:35.983Z,99173.03
2023-08-31T23:01:05.837Z,99182.66
2023-08-31T23:03:34.262Z,99173.88
2023-08-31T23:06:02.611Z,99164.25
2023-08-31T23:08:31.009Z,99171.34
2023-08-31T23:11:00.321Z,99173.88
2023-08-31T23:13:29.302Z,99176.41
2023-08-31T23:15:58.388Z,99173.75
2023-08-31T23:18:28.381Z,99173.75
2023-08-31T23:21:04.779Z,99173.75
2023-08-31T23:23:33.438Z,99179.91
2023-08-31T23:26:01.923Z,99180.75
2023-08-31T23:28:31.407Z,99168.38
2023-08-31T23:31:00.386Z,99172.72
2023-08-31T23:33:30.362Z,99167.41
2023-08-31T23:35:59.049Z,99171.78
2023-08-31T23:38:27.565Z,99166.56
2023-08-31T23:40:57.555Z,99174.44
2023-08-31T23:43:26.366Z,99174.44
2023-08-31T23:45:54.804Z,99174.44
2023-08-31T23:48:23.255Z,99169.13
2023-08-31T23:50:53.023Z,99175.28
2023-08-31T23:53:21.509Z,99169.13
2023-08-31T23:55:51.114Z,99158.56
2023-08-31T23:58:19.613Z,99159.47
